首页
METAR-TAF:

METAR-TAF

机场 :

波特兰国际机场

波特蘭, 俄勒冈州, 美国

纬度: 45-35-27N, 经度: 122-36-01W, 海拔: 8米

当前天气观测

该预报发布于39分钟前的07:53 UTC
风速6节,风向北转西北
温度 17°C
湿度 72%
气压 1020 hPa
能見度: 16.1公里
少量云层高于4500英尺

METAR: KPDX 220753Z 34006KT 10SM FEW045 17/12 A3012 RMK AO2 SLP197 T01720117 402670172 $

时间: 01:32 (08:32 UTC)

预报

该预报发布于3小时和12分钟前的05:20 UTC
预报有效从22日的 06点(UTC)到 23日的 06点(UTC)
风速7节,风向北转西北
能見度: 10公里
少量云层高于2500英尺
多云层高于4500英尺
多云层高于25000英尺
从 22日的 2100点(UTC)
风速10节,风向西北,有时为20节阵风
能見度: 10公里
天空无云

TAF: KPDX 220520Z 2206/2306 33007KT P6SM FEW025 BKN045 BKN250 FM222100 31010G20KT P6SM SKC

超过4000个机场的气象观测和天气预报(METAR&TAF报告)。

可查询的气象台以黄色和红色小点在地图上表示。

将鼠标移到小点上方,可查看气象台名称。

然后点击查看天气观测和预报。

如需切换地图:点击带黑十字的绿色按钮放大地图;点击带横线的绿色按钮缩小地图;或者点击绿色箭头查看邻近地区的地图。


METAR-TAF: